Time;durP1;ratioP1;P1;durP2;ratioP2;P2;SDS_P1;SDS_P2;PMS_P1;PMS_P2;Temp;Humidity;BMP_temperature;BMP_pressure;BME280_temperature;BME280_humidity;BME280_pressure;Samples;Min_cycle;Max_cycle;Signal;HPM_P1;HPM_P2
2021/08/25 00:01:06;;;;;;;2.95;1.35;;;;;;;;;;5011553;28;20400;-57
2021/08/25 00:03:32;;;;;;;3.13;1.58;;;;;;;;;;5010344;28;20742;-59
2021/08/25 00:05:58;;;;;;;3.35;1.60;;;;;;;;;;5004899;28;20415;-57
2021/08/25 00:08:24;;;;;;;4.05;1.35;;;;;;;;;;5008758;28;20424;-59
2021/08/25 00:10:50;;;;;;;4.63;1.45;;;;;;;;;;5002822;28;20948;-57
2021/08/25 00:13:18;;;;;;;2.50;1.20;;;;;;;;;;5008598;28;20408;-54
2021/08/25 00:15:44;;;;;;;2.63;1.40;;;;;;;;;;5006613;28;20401;-59
2021/08/25 00:18:11;;;;;;;2.90;1.30;;;;;;;;;;5010772;28;20408;-57
2021/08/25 00:20:37;;;;;;;2.45;1.48;;;;;;;;;;5010810;28;20397;-57
2021/08/25 00:23:04;;;;;;;2.40;1.20;;;;;;;;;;5010344;28;20491;-56
2021/08/25 00:25:30;;;;;;;2.30;1.15;;;;;;;;;;5009988;28;20877;-55
2021/08/25 00:27:56;;;;;;;2.65;1.30;;;;;;;;;;5007188;28;20663;-57
2021/08/25 00:30:22;;;;;;;2.10;1.10;;;;;;;;;;5008454;28;20945;-57
2021/08/25 00:32:49;;;;;;;2.40;1.20;;;;;;;;;;5007078;28;20413;-57
2021/08/25 00:35:15;;;;;;;2.33;1.17;;;;;;;;;;5006021;28;20522;-59
2021/08/25 00:37:43;;;;;;;2.47;1.23;;;;;;;;;;5009989;28;20409;-58
2021/08/25 00:40:09;;;;;;;2.63;1.10;;;;;;;;;;5009699;28;20378;-58
2021/08/25 00:42:35;;;;;;;2.40;1.20;;;;;;;;;;5008037;28;20496;-59
2021/08/25 00:45:02;;;;;;;2.33;1.13;;;;;;;;;;5010541;28;22307;-59
2021/08/25 00:47:28;;;;;;;2.42;1.35;;;;;;;;;;5009332;28;20420;-57
2021/08/25 00:49:54;;;;;;;2.95;1.27;;;;;;;;;;5009885;28;20412;-58
2021/08/25 00:52:20;;;;;;;3.30;1.50;;;;;;;;;;5008610;28;20416;-58
2021/08/25 00:54:46;;;;;;;2.75;1.50;;;;;;;;;;5010282;28;20897;-58
2021/08/25 00:57:12;;;;;;;3.20;1.50;;;;;;;;;;5009235;28;20467;-57
2021/08/25 00:59:38;;;;;;;2.47;1.20;;;;;;;;;;5009311;28;20478;-56
2021/08/25 01:02:10;;;;;;;3.93;1.30;;;;;;;;;;5010565;28;20499;-55
2021/08/25 01:04:36;;;;;;;2.45;1.20;;;;;;;;;;5006441;28;20414;-58
2021/08/25 01:07:03;;;;;;;2.35;1.00;;;;;;;;;;5004275;28;20461;-56
2021/08/25 01:09:29;;;;;;;3.93;1.30;;;;;;;;;;5005485;28;20787;-54
2021/08/25 01:12:00;;;;;;;1.83;1.10;;;;;;;;;;5003794;28;20833;-54
2021/08/25 01:14:26;;;;;;;2.13;1.17;;;;;;;;;;5008961;28;20474;-56
2021/08/25 01:16:52;;;;;;;2.72;1.42;;;;;;;;;;5010557;28;20423;-56
2021/08/25 01:19:18;;;;;;;3.23;1.43;;;;;;;;;;5009451;28;20519;-58
2021/08/25 01:21:45;;;;;;;3.38;1.80;;;;;;;;;;5006486;28;20444;-58
2021/08/25 01:24:12;;;;;;;3.38;1.40;;;;;;;;;;5010343;28;20932;-59
2021/08/25 01:26:39;;;;;;;2.50;1.40;;;;;;;;;;5010199;28;20397;-58
2021/08/25 01:29:05;;;;;;;4.57;1.80;;;;;;;;;;5008300;28;20412;-59
2021/08/25 01:31:32;;;;;;;2.60;1.40;;;;;;;;;;5010850;28;20884;-59
2021/08/25 01:34:04;;;;;;;2.33;1.50;;;;;;;;;;5010663;28;20396;-57
2021/08/25 01:36:30;;;;;;;3.33;1.60;;;;;;;;;;5007618;28;20933;-59
2021/08/25 01:38:56;;;;;;;3.47;1.58;;;;;;;;;;5007871;28;20408;-58
2021/08/25 01:41:23;;;;;;;2.53;1.27;;;;;;;;;;5008756;28;20855;-56
2021/08/25 01:43:51;;;;;;;3.10;1.40;;;;;;;;;;5008713;28;20603;-56
2021/08/25 01:46:19;;;;;;;2.87;1.40;;;;;;;;;;5004962;28;20404;-59
2021/08/25 01:48:45;;;;;;;3.15;1.33;;;;;;;;;;5007015;28;21288;-56
2021/08/25 01:51:11;;;;;;;3.13;1.58;;;;;;;;;;5009854;28;20416;-59
2021/08/25 01:53:37;;;;;;;3.78;1.58;;;;;;;;;;5010024;28;20969;-57
2021/08/25 01:56:03;;;;;;;3.22;1.50;;;;;;;;;;5009108;28;20733;-54
2021/08/25 01:58:29;;;;;;;2.70;1.42;;;;;;;;;;5020069;28;20440;-57
2021/08/25 02:00:55;;;;;;;2.47;1.23;;;;;;;;;;5007826;28;20839;-55
2021/08/25 02:03:21;;;;;;;4.53;1.70;;;;;;;;;;5010655;28;20730;-56
2021/08/25 02:05:47;;;;;;;3.23;1.50;;;;;;;;;;5002677;28;20480;-55
2021/08/25 02:08:13;;;;;;;4.22;2.10;;;;;;;;;;5002509;28;20453;-56
2021/08/25 02:10:39;;;;;;;2.25;1.20;;;;;;;;;;5000815;28;20429;-57
2021/08/25 02:13:05;;;;;;;4.38;1.40;;;;;;;;;;5008796;28;20470;-57
2021/08/25 02:15:31;;;;;;;2.83;1.20;;;;;;;;;;5010611;28;20861;-59
2021/08/25 02:17:57;;;;;;;4.03;1.80;;;;;;;;;;5006838;28;20787;-59
2021/08/25 02:20:23;;;;;;;2.80;1.42;;;;;;;;;;5011045;28;20392;-58
2021/08/25 02:22:49;;;;;;;3.17;1.35;;;;;;;;;;5012314;28;20776;-59
2021/08/25 02:25:15;;;;;;;3.17;1.60;;;;;;;;;;5011671;28;20389;-59
2021/08/25 02:27:41;;;;;;;2.55;1.25;;;;;;;;;;5008930;28;20433;-58
2021/08/25 02:30:07;;;;;;;2.58;1.40;;;;;;;;;;5010544;28;20459;-58
2021/08/25 02:32:34;;;;;;;2.75;1.50;;;;;;;;;;5011800;28;20408;-58
2021/08/25 02:35:00;;;;;;;4.10;1.70;;;;;;;;;;5003849;28;20405;-57
2021/08/25 02:37:26;;;;;;;3.67;1.50;;;;;;;;;;5011086;28;20396;-56
2021/08/25 02:39:52;;;;;;;3.30;1.50;;;;;;;;;;5012273;28;20455;-57
2021/08/25 02:42:18;;;;;;;5.13;2.30;;;;;;;;;;5011972;28;21172;-56
2021/08/25 02:44:44;;;;;;;2.80;1.40;;;;;;;;;;5012309;28;20451;-57
2021/08/25 02:47:11;;;;;;;2.13;1.27;;;;;;;;;;5010520;28;20500;-56
2021/08/25 02:49:37;;;;;;;3.53;1.60;;;;;;;;;;5012312;28;20736;-57
2021/08/25 02:52:04;;;;;;;3.15;1.48;;;;;;;;;;5007942;28;20413;-55
2021/08/25 02:54:29;;;;;;;3.50;1.50;;;;;;;;;;5012694;28;20487;-58
2021/08/25 02:56:55;;;;;;;2.42;1.40;;;;;;;;;;5011434;28;20416;-60
2021/08/25 02:59:22;;;;;;;2.85;1.65;;;;;;;;;;5009256;28;20740;-60
2021/08/25 03:01:48;;;;;;;3.65;1.65;;;;;;;;;;5012290;28;20427;-60
2021/08/25 03:04:14;;;;;;;2.63;1.38;;;;;;;;;;5012879;28;20424;-60
2021/08/25 03:06:40;;;;;;;2.72;1.52;;;;;;;;;;5011609;28;20397;-60
2021/08/25 03:09:06;;;;;;;3.00;1.77;;;;;;;;;;5003843;28;20413;-59
2021/08/25 03:11:33;;;;;;;2.83;1.37;;;;;;;;;;5008831;28;20463;-60
2021/08/25 03:13:59;;;;;;;2.65;1.30;;;;;;;;;;5012481;28;20880;-60
2021/08/25 03:16:25;;;;;;;2.17;1.13;;;;;;;;;;5012445;28;20393;-59
2021/08/25 03:18:51;;;;;;;2.60;1.42;;;;;;;;;;5009509;28;20413;-59
2021/08/25 03:21:17;;;;;;;2.97;1.53;;;;;;;;;;5009763;28;20400;-59
2021/08/25 03:23:43;;;;;;;2.67;1.23;;;;;;;;;;5010947;28;20398;-59
2021/08/25 03:26:09;;;;;;;2.80;1.40;;;;;;;;;;5023243;28;20405;-60
2021/08/25 03:28:35;;;;;;;2.90;1.30;;;;;;;;;;5003496;28;20551;-59
2021/08/25 03:31:01;;;;;;;2.83;1.20;;;;;;;;;;5007073;28;20419;-60
2021/08/25 03:33:27;;;;;;;2.88;1.50;;;;;;;;;;5011966;28;20401;-59
2021/08/25 03:35:53;;;;;;;3.33;1.45;;;;;;;;;;5012390;28;20419;-59
2021/08/25 03:38:19;;;;;;;3.15;1.50;;;;;;;;;;5009190;28;20428;-60
2021/08/25 03:40:45;;;;;;;2.63;1.27;;;;;;;;;;5011582;28;20804;-59
2021/08/25 03:43:11;;;;;;;2.67;1.23;;;;;;;;;;5008002;28;20415;-60
2021/08/25 03:45:37;;;;;;;3.17;1.50;;;;;;;;;;5011930;28;20412;-60
2021/08/25 03:48:03;;;;;;;2.70;1.40;;;;;;;;;;5003940;28;20466;-60
2021/08/25 03:50:29;;;;;;;2.40;1.25;;;;;;;;;;5010864;28;20487;-60
2021/08/25 03:52:55;;;;;;;3.10;1.57;;;;;;;;;;5010192;28;20407;-60
2021/08/25 03:55:22;;;;;;;2.95;1.52;;;;;;;;;;5012890;28;20539;-60
2021/08/25 03:57:48;;;;;;;2.78;1.30;;;;;;;;;;5009004;28;20408;-58
2021/08/25 04:00:14;;;;;;;3.13;1.30;;;;;;;;;;5010483;28;20416;-60
2021/08/25 04:02:41;;;;;;;2.78;1.30;;;;;;;;;;5012330;28;20408;-60
2021/08/25 04:05:07;;;;;;;3.10;1.40;;;;;;;;;;5012706;28;20424;-60
2021/08/25 04:07:33;;;;;;;2.75;1.33;;;;;;;;;;5009886;28;20427;-60
2021/08/25 04:09:59;;;;;;;2.53;1.25;;;;;;;;;;5004487;28;20401;-58
2021/08/25 04:12:25;;;;;;;3.20;1.40;;;;;;;;;;5020461;28;20396;-60
2021/08/25 04:14:51;;;;;;;3.15;1.30;;;;;;;;;;5006444;28;20454;-59
2021/08/25 04:17:17;;;;;;;2.53;1.33;;;;;;;;;;5011292;28;20393;-60
2021/08/25 04:19:43;;;;;;;3.22;1.42;;;;;;;;;;5008675;28;20416;-59
2021/08/25 04:22:09;;;;;;;2.83;1.35;;;;;;;;;;5007034;28;20405;-60
2021/08/25 04:24:36;;;;;;;2.57;1.30;;;;;;;;;;5024963;28;20901;-58
2021/08/25 04:27:02;;;;;;;2.28;1.30;;;;;;;;;;5011647;28;20432;-58
2021/08/25 04:29:28;;;;;;;2.83;1.33;;;;;;;;;;5010545;28;20408;-60
2021/08/25 04:31:54;;;;;;;2.73;1.23;;;;;;;;;;5010728;28;20761;-60
2021/08/25 04:34:20;;;;;;;2.58;1.23;;;;;;;;;;5011847;28;20588;-60
2021/08/25 04:36:46;;;;;;;3.50;1.48;;;;;;;;;;5010836;28;20396;-60
2021/08/25 04:39:12;;;;;;;3.30;1.60;;;;;;;;;;5008571;28;20493;-60
2021/08/25 04:41:38;;;;;;;3.25;1.50;;;;;;;;;;5011907;28;20404;-60
2021/08/25 04:44:05;;;;;;;3.08;1.40;;;;;;;;;;5011491;28;20482;-60
2021/08/25 04:46:31;;;;;;;3.67;1.60;;;;;;;;;;5006889;28;20632;-60
2021/08/25 04:48:57;;;;;;;2.13;1.20;;;;;;;;;;5008962;28;20772;-60
2021/08/25 04:51:23;;;;;;;1.90;1.10;;;;;;;;;;5010558;28;20396;-60
2021/08/25 04:53:49;;;;;;;3.42;1.48;;;;;;;;;;5010694;28;20400;-60
2021/08/25 04:56:15;;;;;;;1.95;1.10;;;;;;;;;;5009456;28;20590;-60
2021/08/25 04:58:41;;;;;;;2.30;1.20;;;;;;;;;;5017232;28;20408;-60
2021/08/25 05:01:08;;;;;;;2.93;1.37;;;;;;;;;;5007871;28;20411;-60
2021/08/25 05:03:34;;;;;;;1.75;1.10;;;;;;;;;;5019597;28;20555;-60
2021/08/25 05:06:00;;;;;;;6.72;3.03;;;;;;;;;;5002690;28;20868;-60
2021/08/25 05:08:27;;;;;;;16.83;6.83;;;;;;;;;;5006476;28;20416;-59
2021/08/25 05:10:53;;;;;;;15.85;5.95;;;;;;;;;;5009180;28;20500;-60
2021/08/25 05:13:19;;;;;;;7.55;3.30;;;;;;;;;;5002774;28;20401;-60
2021/08/25 05:15:45;;;;;;;8.50;3.33;;;;;;;;;;5004852;28;20422;-60
2021/08/25 05:18:12;;;;;;;5.35;2.50;;;;;;;;;;5008165;28;20825;-60
2021/08/25 05:20:38;;;;;;;5.97;2.80;;;;;;;;;;5006832;28;20417;-60
2021/08/25 05:23:04;;;;;;;6.78;2.83;;;;;;;;;;5005026;28;20435;-60
2021/08/25 05:25:30;;;;;;;5.10;2.45;;;;;;;;;;5008155;28;20491;-60
2021/08/25 05:27:56;;;;;;;5.22;2.22;;;;;;;;;;5012187;28;20466;-60
2021/08/25 05:30:22;;;;;;;5.53;2.30;;;;;;;;;;5007703;28;20879;-60
2021/08/25 05:32:52;;;;;;;5.00;2.25;;;;;;;;;;5008883;28;20488;-60
2021/08/25 05:35:21;;;;;;;3.85;1.83;;;;;;;;;;5004969;28;20456;-60
2021/08/25 05:37:48;;;;;;;5.53;2.08;;;;;;;;;;5004259;28;20932;-60
2021/08/25 05:40:14;;;;;;;3.53;2.00;;;;;;;;;;5002193;28;20400;-60
2021/08/25 05:42:42;;;;;;;3.13;1.50;;;;;;;;;;5007414;28;20399;-60
2021/08/25 05:45:09;;;;;;;6.10;2.05;;;;;;;;;;4999880;28;20512;-60
2021/08/25 05:47:35;;;;;;;4.82;2.10;;;;;;;;;;5006777;28;20503;-60
2021/08/25 05:50:01;;;;;;;3.13;1.67;;;;;;;;;;4998334;28;20433;-60
2021/08/25 05:52:27;;;;;;;3.75;1.67;;;;;;;;;;5007525;28;20420;-60
2021/08/25 05:54:53;;;;;;;3.17;1.48;;;;;;;;;;5003530;28;20393;-60
2021/08/25 05:57:19;;;;;;;2.33;1.20;;;;;;;;;;5010881;28;20760;-60
2021/08/25 05:59:44;;;;;;;2.58;1.13;;;;;;;;;;5007466;28;20419;-60
2021/08/25 06:02:10;;;;;;;3.33;1.30;;;;;;;;;;5011782;28;20401;-60
2021/08/25 06:04:36;;;;;;;2.35;1.25;;;;;;;;;;5010775;28;20405;-60
2021/08/25 06:07:03;;;;;;;3.08;1.70;;;;;;;;;;5003419;28;20401;-60
2021/08/25 06:09:29;;;;;;;2.90;1.50;;;;;;;;;;5012401;28;20483;-60
2021/08/25 06:11:55;;;;;;;2.30;1.20;;;;;;;;;;5022651;28;20510;-60
2021/08/25 06:14:21;;;;;;;2.92;1.42;;;;;;;;;;5007310;28;20404;-60
2021/08/25 06:16:47;;;;;;;2.63;1.43;;;;;;;;;;5007935;28;21159;-60
2021/08/25 06:19:14;;;;;;;2.30;1.10;;;;;;;;;;5012715;28;20492;-60
2021/08/25 06:21:43;;;;;;;3.47;1.60;;;;;;;;;;5013862;28;20777;-60
2021/08/25 06:24:09;;;;;;;3.13;1.58;;;;;;;;;;5011544;28;20505;-60
2021/08/25 06:26:35;;;;;;;3.58;1.70;;;;;;;;;;5013715;28;20859;-60
2021/08/25 06:29:01;;;;;;;2.75;1.40;;;;;;;;;;5011511;28;20416;-60
2021/08/25 06:31:27;;;;;;;3.13;1.57;;;;;;;;;;5013600;28;20505;-59
2021/08/25 06:33:53;;;;;;;4.40;1.73;;;;;;;;;;5013575;28;20611;-60
2021/08/25 06:36:19;;;;;;;3.13;1.50;;;;;;;;;;5007910;28;20398;-60
2021/08/25 06:38:45;;;;;;;3.50;1.77;;;;;;;;;;5022979;28;20924;-60
2021/08/25 06:41:11;;;;;;;2.75;1.52;;;;;;;;;;5011907;28;20399;-61
2021/08/25 06:43:37;;;;;;;2.60;1.30;;;;;;;;;;5012191;28;20396;-60
2021/08/25 06:46:04;;;;;;;2.95;1.58;;;;;;;;;;5008087;28;20483;-60
2021/08/25 06:48:29;;;;;;;4.57;1.67;;;;;;;;;;5012335;28;20407;-60
2021/08/25 06:50:55;;;;;;;4.18;1.75;;;;;;;;;;5013312;28;20393;-60
2021/08/25 06:53:22;;;;;;;3.23;1.40;;;;;;;;;;5013096;28;20416;-60
2021/08/25 06:55:48;;;;;;;3.80;1.83;;;;;;;;;;5011658;28;20396;-60
2021/08/25 06:58:14;;;;;;;3.37;1.60;;;;;;;;;;5016290;28;20391;-60
2021/08/25 07:00:40;;;;;;;4.87;2.30;;;;;;;;;;5010436;28;20526;-61
2021/08/25 07:03:06;;;;;;;3.45;1.83;;;;;;;;;;5013165;28;20420;-61
2021/08/25 07:05:32;;;;;;;3.45;1.50;;;;;;;;;;5019134;28;20421;-61
2021/08/25 07:08:00;;;;;;;4.07;1.88;;;;;;;;;;4996753;28;21031;-61
2021/08/25 07:10:26;;;;;;;3.87;1.73;;;;;;;;;;5026848;28;20431;-60
2021/08/25 07:12:52;;;;;;;3.88;1.63;;;;;;;;;;5012843;28;20405;-60
2021/08/25 07:15:18;;;;;;;5.30;1.65;;;;;;;;;;5009665;28;20468;-61
2021/08/25 07:17:45;;;;;;;3.53;1.48;;;;;;;;;;5012479;28;20515;-61
2021/08/25 07:20:11;;;;;;;2.95;1.20;;;;;;;;;;5009100;28;20479;-60
2021/08/25 07:22:38;;;;;;;3.17;1.30;;;;;;;;;;5012023;28;20404;-60
2021/08/25 07:25:04;;;;;;;3.10;1.50;;;;;;;;;;5012671;28;20389;-60
2021/08/25 07:27:30;;;;;;;2.55;1.20;;;;;;;;;;5011465;28;20416;-60
2021/08/25 07:29:56;;;;;;;3.35;1.70;;;;;;;;;;5007102;28;20388;-60
2021/08/25 07:32:22;;;;;;;3.47;1.33;;;;;;;;;;5012058;28;20889;-60
2021/08/25 07:34:48;;;;;;;3.93;1.70;;;;;;;;;;5006317;28;20387;-60
2021/08/25 07:37:14;;;;;;;3.63;1.40;;;;;;;;;;5009785;28;20420;-60
2021/08/25 07:39:40;;;;;;;5.72;1.40;;;;;;;;;;5005295;28;20389;-61
2021/08/25 07:42:06;;;;;;;5.40;1.55;;;;;;;;;;5012180;28;20472;-61
2021/08/25 07:44:32;;;;;;;4.53;1.42;;;;;;;;;;5009659;28;20413;-60
2021/08/25 07:46:58;;;;;;;4.17;1.53;;;;;;;;;;5012061;28;20387;-61
2021/08/25 07:49:24;;;;;;;4.55;1.48;;;;;;;;;;5011657;28;20448;-60
2021/08/25 07:51:50;;;;;;;3.75;1.70;;;;;;;;;;5011378;28;20451;-60
2021/08/25 07:54:16;;;;;;;2.88;1.55;;;;;;;;;;5019159;28;20513;-60
2021/08/25 07:56:42;;;;;;;2.92;1.30;;;;;;;;;;5011350;28;20393;-60
2021/08/25 07:59:08;;;;;;;3.38;1.40;;;;;;;;;;5011688;28;20393;-60
2021/08/25 08:01:34;;;;;;;3.23;1.57;;;;;;;;;;5010826;28;20792;-60
2021/08/25 08:04:00;;;;;;;2.25;1.10;;;;;;;;;;5012114;28;20389;-60
2021/08/25 08:06:26;;;;;;;4.07;1.70;;;;;;;;;;5010749;28;20849;-60
2021/08/25 08:08:53;;;;;;;3.47;1.35;;;;;;;;;;5007361;28;20430;-60
2021/08/25 08:11:18;;;;;;;2.90;1.40;;;;;;;;;;5011176;28;20412;-60
2021/08/25 08:13:44;;;;;;;5.32;1.90;;;;;;;;;;5011265;28;20749;-60
2021/08/25 08:16:17;;;;;;;3.70;1.67;;;;;;;;;;5011457;28;20396;-60
2021/08/25 08:18:54;;;;;;;3.75;1.20;;;;;;;;;;5008334;28;20478;-60
2021/08/25 08:21:20;;;;;;;3.40;1.60;;;;;;;;;;5007981;28;20456;-60
2021/08/25 08:23:46;;;;;;;2.22;1.10;;;;;;;;;;5011050;28;20388;-60
2021/08/25 08:26:12;;;;;;;2.47;1.20;;;;;;;;;;5011396;28;20432;-60
2021/08/25 08:28:38;;;;;;;3.92;1.45;;;;;;;;;;5010226;28;20408;-60
2021/08/25 08:31:04;;;;;;;2.50;1.20;;;;;;;;;;5011607;28;20434;-60
2021/08/25 08:33:30;;;;;;;5.68;1.52;;;;;;;;;;5007669;28;20400;-60
2021/08/25 08:35:56;;;;;;;3.35;1.48;;;;;;;;;;5011594;28;20412;-60
2021/08/25 08:38:22;;;;;;;3.88;1.58;;;;;;;;;;5010107;28;20391;-60
2021/08/25 08:40:48;;;;;;;2.53;1.20;;;;;;;;;;5011043;28;20402;-60
2021/08/25 08:43:14;;;;;;;6.35;1.92;;;;;;;;;;5009791;28;20389;-60
2021/08/25 08:45:41;;;;;;;2.80;1.50;;;;;;;;;;5011168;28;20407;-60
2021/08/25 08:48:11;;;;;;;2.55;1.27;;;;;;;;;;5010867;28;20417;-60
2021/08/25 08:50:38;;;;;;;3.17;1.20;;;;;;;;;;5010583;28;20401;-60
2021/08/25 08:53:06;;;;;;;3.17;1.23;;;;;;;;;;5007509;28;20761;-60
2021/08/25 08:55:32;;;;;;;3.35;1.55;;;;;;;;;;5011271;28;20389;-60
2021/08/25 08:57:58;;;;;;;3.92;1.77;;;;;;;;;;5010544;28;20453;-60
2021/08/25 09:00:24;;;;;;;2.08;1.15;;;;;;;;;;5011335;28;20392;-60
2021/08/25 09:02:50;;;;;;;3.35;1.35;;;;;;;;;;5011115;28;20416;-60
2021/08/25 09:05:23;;;;;;;3.30;1.45;;;;;;;;;;5010718;28;20424;-61
2021/08/25 09:07:57;;;;;;;3.23;1.27;;;;;;;;;;5008432;28;20420;-60
2021/08/25 09:10:27;;;;;;;2.58;1.27;;;;;;;;;;5011146;28;20508;-60
2021/08/25 09:13:03;;;;;;;3.33;1.40;;;;;;;;;;5005693;28;20376;-60
2021/08/25 09:15:30;;;;;;;4.75;1.50;;;;;;;;;;5011093;28;20404;-60
2021/08/25 09:17:57;;;;;;;4.18;1.52;;;;;;;;;;5010368;28;20901;-60
2021/08/25 09:20:23;;;;;;;2.83;1.58;;;;;;;;;;5011033;28;20519;-60
2021/08/25 09:23:09;;;;;;;5.05;1.85;;;;;;;;;;5010980;28;20376;-60
2021/08/25 09:25:35;;;;;;;2.78;1.20;;;;;;;;;;5007461;28;20903;-60
2021/08/25 09:28:02;;;;;;;2.88;1.23;;;;;;;;;;5012101;28;21124;-60
2021/08/25 09:30:48;;;;;;;4.95;1.85;;;;;;;;;;5015034;28;20463;-60
2021/08/25 09:33:14;;;;;;;3.40;1.58;;;;;;;;;;5014380;28;20471;-60
2021/08/25 09:35:40;;;;;;;3.05;1.52;;;;;;;;;;5014814;28;20459;-60
2021/08/25 09:38:07;;;;;;;2.63;1.30;;;;;;;;;;5005118;28;20766;-60
2021/08/25 09:40:33;;;;;;;3.90;1.60;;;;;;;;;;5013162;28;20401;-60
2021/08/25 09:42:59;;;;;;;2.60;1.38;;;;;;;;;;5014443;28;20861;-60
2021/08/25 09:45:25;;;;;;;3.42;1.30;;;;;;;;;;5014574;28;20519;-60
2021/08/25 09:47:52;;;;;;;3.27;1.40;;;;;;;;;;5013992;28;20823;-60
2021/08/25 09:50:20;;;;;;;3.38;1.20;;;;;;;;;;5014492;28;20853;-60
2021/08/25 09:52:46;;;;;;;2.97;1.33;;;;;;;;;;5014045;28;20380;-60
2021/08/25 09:55:13;;;;;;;3.45;1.42;;;;;;;;;;5014703;28;20385;-60
2021/08/25 09:57:40;;;;;;;2.67;1.23;;;;;;;;;;5013204;28;21308;-60
2021/08/25 10:00:08;;;;;;;2.95;1.58;;;;;;;;;;5014304;28;20381;-60
2021/08/25 10:02:34;;;;;;;2.88;1.30;;;;;;;;;;5014131;28;20381;-61
2021/08/25 10:05:00;;;;;;;2.55;1.20;;;;;;;;;;5014130;28;20463;-61
2021/08/25 10:07:26;;;;;;;2.92;1.30;;;;;;;;;;5011716;28;20896;-60
2021/08/25 10:09:54;;;;;;;2.75;1.45;;;;;;;;;;5013513;28;20392;-60
2021/08/25 10:12:20;;;;;;;3.47;1.40;;;;;;;;;;5013799;28;20484;-60
2021/08/25 10:14:46;;;;;;;3.33;1.33;;;;;;;;;;5009711;28;20488;-60
2021/08/25 10:17:31;;;;;;;3.80;1.27;;;;;;;;;;5013919;28;20389;-60
2021/08/25 10:19:57;;;;;;;3.27;1.50;;;;;;;;;;5013768;28;20908;-60
2021/08/25 10:22:24;;;;;;;3.28;1.58;;;;;;;;;;5013859;28;20387;-60
2021/08/25 10:24:53;;;;;;;2.95;1.40;;;;;;;;;;5013581;28;20472;-60
2021/08/25 10:27:20;;;;;;;2.05;0.98;;;;;;;;;;5008119;28;20729;-60
2021/08/25 10:30:01;;;;;;;3.95;1.67;;;;;;;;;;5012823;28;20396;-60
2021/08/25 10:32:27;;;;;;;2.92;1.27;;;;;;;;;;5013878;28;20432;-60
2021/08/25 10:35:16;;;;;;;2.67;1.47;;;;;;;;;;5013641;28;20389;-60
2021/08/25 10:37:43;;;;;;;4.15;1.50;;;;;;;;;;5013264;28;20380;-60
2021/08/25 10:40:10;;;;;;;3.65;1.63;;;;;;;;;;5013303;28;20424;-60
2021/08/25 10:43:05;;;;;;;2.92;1.40;;;;;;;;;;5012286;28;20546;-60
2021/08/25 10:45:47;;;;;;;2.13;1.10;;;;;;;;;;5001005;28;20810;-60
2021/08/25 10:48:13;;;;;;;2.88;1.60;;;;;;;;;;5013200;28;20515;-60
2021/08/25 10:50:49;;;;;;;3.83;1.33;;;;;;;;;;5011479;28;20953;-60
2021/08/25 10:53:31;;;;;;;3.22;1.42;;;;;;;;;;5008339;28;20385;-60
2021/08/25 10:56:12;;;;;;;2.65;1.10;;;;;;;;;;5004012;28;20481;-60
2021/08/25 10:58:44;;;;;;;3.35;1.23;;;;;;;;;;5009987;28;20428;-60
2021/08/25 11:01:30;;;;;;;3.07;1.33;;;;;;;;;;5010010;28;20773;-60
2021/08/25 11:04:00;;;;;;;2.83;1.40;;;;;;;;;;5009404;28;21239;-60
2021/08/25 11:06:30;;;;;;;3.67;1.50;;;;;;;;;;5004507;28;20421;-60
2021/08/25 11:09:09;;;;;;;3.45;1.42;;;;;;;;;;5003263;28;20431;-61
2021/08/25 11:11:35;;;;;;;2.25;1.10;;;;;;;;;;5008709;28;20803;-60
2021/08/25 11:14:01;;;;;;;2.38;1.10;;;;;;;;;;5011619;28;20466;-60
2021/08/25 11:16:27;;;;;;;4.37;1.63;;;;;;;;;;5011024;28;20400;-59
2021/08/25 11:18:53;;;;;;;3.03;1.38;;;;;;;;;;5009864;28;20464;-59
2021/08/25 11:21:19;;;;;;;3.28;1.50;;;;;;;;;;5023438;28;20955;-60
2021/08/25 11:23:52;;;;;;;2.53;1.10;;;;;;;;;;5001663;28;20959;-60
2021/08/25 11:26:18;;;;;;;3.15;1.25;;;;;;;;;;5012265;28;20392;-59
2021/08/25 11:28:44;;;;;;;2.25;1.25;;;;;;;;;;5005369;28;20952;-60
2021/08/25 11:31:10;;;;;;;2.47;1.20;;;;;;;;;;5007832;28;20507;-58
2021/08/25 11:33:36;;;;;;;3.27;1.43;;;;;;;;;;5004369;28;20476;-60
2021/08/25 11:36:03;;;;;;;2.65;1.35;;;;;;;;;;5005426;28;21009;-60
2021/08/25 11:38:29;;;;;;;3.17;1.27;;;;;;;;;;5010419;28;20411;-60
2021/08/25 11:40:56;;;;;;;2.45;1.20;;;;;;;;;;5011103;28;20401;-60
2021/08/25 11:43:24;;;;;;;3.35;1.23;;;;;;;;;;5009707;28;20480;-60
2021/08/25 11:45:53;;;;;;;2.53;1.20;;;;;;;;;;5007971;28;20399;-60
2021/08/25 11:48:29;;;;;;;3.10;1.20;;;;;;;;;;5010176;28;20837;-60
2021/08/25 11:50:56;;;;;;;3.53;1.35;;;;;;;;;;5011685;28;20427;-60
2021/08/25 11:53:23;;;;;;;2.45;1.02;;;;;;;;;;5011445;28;20475;-60
2021/08/25 11:55:50;;;;;;;3.35;1.30;;;;;;;;;;5012080;28;20460;-59
2021/08/25 11:58:23;;;;;;;4.00;1.40;;;;;;;;;;5006269;28;20500;-60
2021/08/25 12:00:49;;;;;;;2.70;1.38;;;;;;;;;;5012124;28;20384;-60
2021/08/25 12:03:15;;;;;;;2.88;1.30;;;;;;;;;;5007308;28;20444;-60
2021/08/25 12:05:51;;;;;;;2.60;1.20;;;;;;;;;;5010354;28;20555;-60
2021/08/25 12:08:17;;;;;;;3.17;1.17;;;;;;;;;;5010524;28;20437;-60
2021/08/25 12:10:43;;;;;;;3.25;1.38;;;;;;;;;;5008293;28;20773;-60
2021/08/25 12:13:10;;;;;;;2.60;1.20;;;;;;;;;;5010061;28;20451;-60
2021/08/25 12:15:42;;;;;;;3.38;1.27;;;;;;;;;;5009905;28;20853;-59
2021/08/25 12:18:08;;;;;;;2.65;1.20;;;;;;;;;;5009386;28;20421;-60
2021/08/25 12:20:39;;;;;;;2.95;1.27;;;;;;;;;;5010783;28;20560;-60
2021/08/25 12:23:06;;;;;;;2.00;0.90;;;;;;;;;;5009299;28;20892;-60
2021/08/25 12:25:35;;;;;;;2.65;1.10;;;;;;;;;;5006288;28;21057;-59
2021/08/25 12:28:01;;;;;;;2.63;1.30;;;;;;;;;;5008418;28;20749;-60
2021/08/25 12:30:33;;;;;;;3.30;1.45;;;;;;;;;;5010047;28;20404;-60
2021/08/25 12:33:04;;;;;;;2.38;1.23;;;;;;;;;;5008396;28;20770;-59
2021/08/25 12:35:30;;;;;;;2.40;1.35;;;;;;;;;;5009049;28;20393;-58
2021/08/25 12:37:56;;;;;;;2.90;1.30;;;;;;;;;;5010680;28;20866;-59
2021/08/25 12:40:23;;;;;;;2.33;1.23;;;;;;;;;;5003053;28;20396;-60
2021/08/25 12:42:49;;;;;;;3.15;1.30;;;;;;;;;;5011213;28;20404;-60
2021/08/25 12:45:15;;;;;;;2.33;1.10;;;;;;;;;;5018437;28;20452;-59
2021/08/25 12:47:41;;;;;;;3.17;1.50;;;;;;;;;;5010520;28;20412;-59
2021/08/25 12:50:08;;;;;;;2.67;1.27;;;;;;;;;;5011189;28;20395;-59
2021/08/25 12:52:34;;;;;;;2.65;1.20;;;;;;;;;;5010882;28;20396;-60
2021/08/25 12:55:00;;;;;;;2.70;1.10;;;;;;;;;;5024005;28;20403;-60
2021/08/25 12:57:26;;;;;;;2.45;1.08;;;;;;;;;;5006618;28;20431;-59
2021/08/25 12:59:52;;;;;;;2.10;1.10;;;;;;;;;;5002273;28;20501;-59
2021/08/25 13:02:18;;;;;;;2.67;1.10;;;;;;;;;;5004857;28;20441;-59
2021/08/25 13:04:44;;;;;;;2.30;1.10;;;;;;;;;;5006814;28;20454;-60
2021/08/25 13:07:11;;;;;;;2.93;1.10;;;;;;;;;;5006361;28;20878;-60
2021/08/25 13:09:37;;;;;;;2.10;1.08;;;;;;;;;;5010243;28;20419;-60
2021/08/25 13:12:04;;;;;;;2.60;1.23;;;;;;;;;;5008996;28;20475;-60
2021/08/25 13:14:30;;;;;;;2.45;1.05;;;;;;;;;;5007906;28;20400;-60
2021/08/25 13:16:56;;;;;;;1.77;0.97;;;;;;;;;;5008512;28;20876;-60
2021/08/25 13:19:22;;;;;;;2.10;1.00;;;;;;;;;;5009103;28;20447;-60
2021/08/25 13:21:48;;;;;;;2.33;1.10;;;;;;;;;;5009426;28;20420;-60
2021/08/25 13:24:14;;;;;;;1.90;0.93;;;;;;;;;;5009774;28;20408;-60
2021/08/25 13:26:40;;;;;;;2.17;0.90;;;;;;;;;;5010245;28;20742;-60
2021/08/25 13:29:06;;;;;;;2.08;0.90;;;;;;;;;;5008697;28;20404;-60
2021/08/25 13:31:32;;;;;;;1.75;0.85;;;;;;;;;;5010028;28;20876;-60
2021/08/25 13:33:58;;;;;;;2.00;0.93;;;;;;;;;;5009205;28;20710;-59
2021/08/25 13:36:25;;;;;;;1.80;0.98;;;;;;;;;;5003523;28;20408;-60
2021/08/25 13:38:51;;;;;;;2.95;1.20;;;;;;;;;;5007879;28;20413;-59
2021/08/25 13:41:17;;;;;;;1.92;0.90;;;;;;;;;;5007017;28;20421;-59
2021/08/25 13:43:43;;;;;;;2.40;1.20;;;;;;;;;;5006685;28;20411;-60
2021/08/25 13:46:09;;;;;;;3.05;0.90;;;;;;;;;;5003770;28;20461;-60
2021/08/25 13:48:35;;;;;;;1.80;0.85;;;;;;;;;;5001975;28;20419;-59
2021/08/25 13:51:01;;;;;;;3.38;1.10;;;;;;;;;;5006246;28;20396;-60
2021/08/25 13:53:27;;;;;;;2.70;1.05;;;;;;;;;;5006779;28;20392;-60
2021/08/25 13:55:53;;;;;;;1.83;0.90;;;;;;;;;;5004884;28;20457;-60
2021/08/25 13:58:19;;;;;;;2.25;1.00;;;;;;;;;;5005942;28;20405;-60
2021/08/25 14:00:46;;;;;;;2.15;0.80;;;;;;;;;;5006093;28;20420;-60
2021/08/25 14:03:12;;;;;;;2.67;1.10;;;;;;;;;;5009097;28;20471;-60
2021/08/25 14:05:38;;;;;;;2.03;1.00;;;;;;;;;;5008700;28;20397;-60
2021/08/25 14:08:05;;;;;;;1.45;0.80;;;;;;;;;;5001860;28;20509;-59
2021/08/25 14:10:31;;;;;;;2.00;0.90;;;;;;;;;;5005254;28;20424;-59
2021/08/25 14:12:57;;;;;;;3.20;1.10;;;;;;;;;;5012398;28;20404;-60
2021/08/25 14:15:23;;;;;;;1.92;0.85;;;;;;;;;;5013110;28;20408;-59
2021/08/25 14:17:49;;;;;;;2.20;1.00;;;;;;;;;;5012374;28;20415;-59
2021/08/25 14:20:15;;;;;;;2.13;0.90;;;;;;;;;;5007877;28;20411;-59
2021/08/25 14:22:42;;;;;;;1.95;1.08;;;;;;;;;;5012031;28;20899;-59
2021/08/25 14:25:08;;;;;;;2.13;0.77;;;;;;;;;;5008791;28;20769;-60
2021/08/25 14:27:34;;;;;;;2.25;1.02;;;;;;;;;;5005504;28;20440;-60
2021/08/25 14:30:01;;;;;;;3.30;1.20;;;;;;;;;;5005719;28;20462;-60
2021/08/25 14:32:27;;;;;;;1.83;0.80;;;;;;;;;;5010659;28;20419;-60
2021/08/25 14:34:53;;;;;;;2.30;0.90;;;;;;;;;;5003246;28;20519;-62
2021/08/25 14:37:19;;;;;;;2.20;1.08;;;;;;;;;;5008965;28;20404;-60
2021/08/25 14:39:45;;;;;;;2.20;0.90;;;;;;;;;;5003692;28;20404;-61
2021/08/25 14:42:11;;;;;;;1.33;0.70;;;;;;;;;;5012851;28;20861;-61